DARAJ65 OPKC-OERF
Flight info
| Callsign | DARAJ65 |
|---|---|
| Flight time | N/A |
| Altitude | FL380 |
| Route | MELO1H MELOM A325 PARET J215 PI J120 BIVIN A791 GIDIL L700 ULDUN T800 NANPA M317 SERDU A453 LVA N570 DURSI B416 IMDAT R784 NANPI G669 KUA B417 BOSID L550 VATIM L768 RAF |
| Aircraft | CL60/M-SADE3FGHIJ3J4J7P2RWXY/HB1D1 |
Departure
| Time | N/A |
|---|---|
| Airport | Jinnah International Airport (OPKC) |
Arrival
| Time | 2026-05-06 01:19 |
|---|---|
| Airport | Rafha Domestic Airport (OERF) |
| Time | Latitude | Longitude | Altitude | Speed | Heading |
|---|---|---|---|---|---|
| 2026-05-05 23:41 | 26.79877 | 54.36266 | 37811 ft | 412 kts | 269° |
| 2026-05-05 23:41 | 26.79982 | 54.29812 | 37816 ft | 413 kts | 269° |
| 2026-05-05 23:42 | 26.80084 | 54.23353 | 37817 ft | 413 kts | 269° |
| 2026-05-05 23:42 | 26.80185 | 54.16824 | 37805 ft | 413 kts | 269° |
| 2026-05-05 23:43 | 26.80283 | 54.10256 | 37807 ft | 412 kts | 269° |
| 2026-05-05 23:43 | 26.80378 | 54.03681 | 37796 ft | 413 kts | 269° |
| 2026-05-05 23:44 | 26.80470 | 53.97079 | 37792 ft | 412 kts | 269° |
| 2026-05-05 23:44 | 26.80559 | 53.90528 | 37804 ft | 411 kts | 269° |
| 2026-05-05 23:45 | 26.80647 | 53.83888 | 37805 ft | 411 kts | 268° |
| 2026-05-05 23:45 | 26.80731 | 53.77256 | 37821 ft | 411 kts | 268° |
| 2026-05-05 23:46 | 26.80813 | 53.70489 | 37814 ft | 411 kts | 269° |
| 2026-05-05 23:46 | 26.80892 | 53.63803 | 37821 ft | 411 kts | 268° |
| 2026-05-05 23:47 | 26.80966 | 53.57155 | 37806 ft | 411 kts | 268° |
| 2026-05-05 23:47 | 26.81038 | 53.50493 | 37805 ft | 411 kts | 268° |
| 2026-05-05 23:48 | 26.81109 | 53.43700 | 37790 ft | 411 kts | 269° |
| 2026-05-05 23:48 | 26.81274 | 53.36933 | 37777 ft | 413 kts | 273° |
| 2026-05-05 23:49 | 26.82721 | 53.30535 | 37758 ft | 419 kts | 284° |
| 2026-05-05 23:49 | 26.84622 | 53.24233 | 37738 ft | 419 kts | 284° |
| 2026-05-05 23:50 | 26.86596 | 53.17665 | 37732 ft | 418 kts | 284° |
| 2026-05-05 23:50 | 26.88556 | 53.11135 | 37721 ft | 417 kts | 284° |
| 2026-05-05 23:51 | 26.90513 | 53.04604 | 37722 ft | 416 kts | 283° |
| 2026-05-05 23:51 | 26.92476 | 52.98042 | 37716 ft | 416 kts | 283° |
| 2026-05-05 23:52 | 26.94418 | 52.91536 | 37714 ft | 416 kts | 283° |
| 2026-05-05 23:52 | 26.96386 | 52.84932 | 37715 ft | 415 kts | 283° |
| 2026-05-05 23:53 | 26.98330 | 52.78396 | 37715 ft | 415 kts | 283° |
| 2026-05-05 23:53 | 27.00285 | 52.71812 | 37709 ft | 415 kts | 283° |
| 2026-05-05 23:54 | 27.02211 | 52.65309 | 37710 ft | 415 kts | 283° |
| 2026-05-05 23:54 | 27.04169 | 52.58691 | 37705 ft | 415 kts | 283° |
| 2026-05-05 23:55 | 27.06105 | 52.52132 | 37714 ft | 414 kts | 283° |
| 2026-05-05 23:55 | 27.08052 | 52.45522 | 37733 ft | 414 kts | 283° |
| 2026-05-05 23:56 | 27.09981 | 52.38963 | 37724 ft | 413 kts | 283° |
| 2026-05-05 23:56 | 27.11841 | 52.32627 | 37720 ft | 413 kts | 283° |
| 2026-05-05 23:57 | 27.13701 | 52.26276 | 37716 ft | 412 kts | 283° |
| 2026-05-05 23:57 | 27.15608 | 52.19751 | 37716 ft | 411 kts | 283° |
| 2026-05-05 23:58 | 27.17504 | 52.13254 | 37720 ft | 411 kts | 283° |
| 2026-05-05 23:58 | 27.19398 | 52.06748 | 37723 ft | 411 kts | 283° |
| 2026-05-05 23:59 | 27.21919 | 52.00430 | 37712 ft | 422 kts | 295° |
| 2026-05-05 23:59 | 27.25271 | 51.94545 | 37714 ft | 424 kts | 295° |
| 2026-05-06 00:00 | 27.28673 | 51.88569 | 37714 ft | 424 kts | 296° |
| 2026-05-06 00:00 | 27.32060 | 51.82611 | 37727 ft | 424 kts | 296° |
| 2026-05-06 00:01 | 27.35477 | 51.76592 | 37731 ft | 423 kts | 296° |
| 2026-05-06 00:01 | 27.38872 | 51.70604 | 37746 ft | 422 kts | 295° |
| 2026-05-06 00:02 | 27.42267 | 51.64609 | 37740 ft | 422 kts | 295° |
| 2026-05-06 00:02 | 27.45644 | 51.58635 | 37759 ft | 422 kts | 295° |
| 2026-05-06 00:03 | 27.49017 | 51.52661 | 37756 ft | 423 kts | 295° |
| 2026-05-06 00:03 | 27.52402 | 51.46656 | 37763 ft | 423 kts | 295° |
| 2026-05-06 00:04 | 27.55788 | 51.40642 | 37760 ft | 423 kts | 295° |
| 2026-05-06 00:04 | 27.59154 | 51.34656 | 37772 ft | 423 kts | 295° |
| 2026-05-06 00:05 | 27.64092 | 51.25859 | 37773 ft | 422 kts | 294° |
| 2026-05-06 00:06 | 27.67435 | 51.19916 | 37776 ft | 422 kts | 296° |
| 2026-05-06 00:06 | 27.71567 | 51.14599 | 37774 ft | 433 kts | 306° |
| 2026-05-06 00:07 | 27.76059 | 51.09442 | 37776 ft | 432 kts | 306° |
| 2026-05-06 00:07 | 27.80491 | 51.04347 | 37772 ft | 431 kts | 306° |
| 2026-05-06 00:08 | 27.84915 | 50.99257 | 37762 ft | 430 kts | 306° |
| 2026-05-06 00:08 | 27.89320 | 50.94182 | 37758 ft | 430 kts | 306° |
| 2026-05-06 00:09 | 27.93777 | 50.89042 | 37758 ft | 429 kts | 306° |
| 2026-05-06 00:09 | 27.98222 | 50.83909 | 37759 ft | 429 kts | 306° |
| 2026-05-06 00:10 | 28.02582 | 50.78868 | 37760 ft | 428 kts | 306° |
| 2026-05-06 00:10 | 28.07046 | 50.73703 | 37762 ft | 427 kts | 306° |
| 2026-05-06 00:11 | 28.11359 | 50.68704 | 37762 ft | 427 kts | 306° |
| 2026-05-06 00:11 | 28.15648 | 50.63729 | 37770 ft | 426 kts | 305° |
| 2026-05-06 00:12 | 28.20066 | 50.58596 | 37775 ft | 427 kts | 305° |
| 2026-05-06 00:12 | 28.24552 | 50.53377 | 37778 ft | 427 kts | 305° |
| 2026-05-06 00:13 | 28.28946 | 50.48261 | 37782 ft | 427 kts | 305° |
| 2026-05-06 00:13 | 28.33391 | 50.43078 | 37779 ft | 427 kts | 305° |
| 2026-05-06 00:14 | 28.37780 | 50.37954 | 37781 ft | 427 kts | 305° |
| 2026-05-06 00:14 | 28.42134 | 50.32866 | 37784 ft | 426 kts | 304° |
| 2026-05-06 00:15 | 28.46516 | 50.27738 | 37775 ft | 425 kts | 304° |
| 2026-05-06 00:15 | 28.50835 | 50.22677 | 37774 ft | 425 kts | 304° |
| 2026-05-06 00:16 | 28.55038 | 50.17744 | 37769 ft | 425 kts | 304° |
| 2026-05-06 00:16 | 28.59218 | 50.12722 | 37761 ft | 424 kts | 303° |
| 2026-05-06 00:17 | 28.63504 | 50.07549 | 37761 ft | 423 kts | 303° |
| 2026-05-06 00:17 | 28.67831 | 50.02323 | 37765 ft | 423 kts | 303° |
| 2026-05-06 00:18 | 28.72062 | 49.97204 | 37766 ft | 422 kts | 303° |
| 2026-05-06 00:18 | 28.76369 | 49.91989 | 37763 ft | 422 kts | 303° |
| 2026-05-06 00:19 | 28.80678 | 49.86764 | 37772 ft | 421 kts | 303° |
| 2026-05-06 00:19 | 28.84976 | 49.81545 | 37783 ft | 421 kts | 302° |
| 2026-05-06 00:20 | 28.89224 | 49.76379 | 37780 ft | 423 kts | 303° |
| 2026-05-06 00:20 | 28.93338 | 49.71371 | 37784 ft | 423 kts | 303° |
| 2026-05-06 00:21 | 28.97705 | 49.66051 | 37792 ft | 422 kts | 302° |
| 2026-05-06 00:21 | 29.01903 | 49.60926 | 37786 ft | 423 kts | 302° |
| 2026-05-06 00:22 | 29.05924 | 49.55423 | 37797 ft | 409 kts | 292° |
| 2026-05-06 00:22 | 29.08257 | 49.49705 | 37794 ft | 393 kts | 280° |
| 2026-05-06 00:23 | 29.09312 | 49.43641 | 37788 ft | 385 kts | 271° |
| 2026-05-06 00:23 | 29.09995 | 49.37337 | 37795 ft | 385 kts | 271° |
| 2026-05-06 00:24 | 29.10653 | 49.31285 | 37796 ft | 385 kts | 271° |
| 2026-05-06 00:24 | 29.11315 | 49.25191 | 37794 ft | 385 kts | 271° |
| 2026-05-06 00:25 | 29.11976 | 49.19086 | 37779 ft | 385 kts | 271° |
| 2026-05-06 00:25 | 29.12648 | 49.12871 | 37779 ft | 385 kts | 271° |
| 2026-05-06 00:26 | 29.13333 | 49.06503 | 37786 ft | 386 kts | 271° |
| 2026-05-06 00:26 | 29.14032 | 48.99983 | 37784 ft | 386 kts | 271° |
| 2026-05-06 00:27 | 29.14722 | 48.93528 | 37786 ft | 387 kts | 271° |
| 2026-05-06 00:27 | 29.15418 | 48.86992 | 37784 ft | 386 kts | 271° |
| 2026-05-06 00:28 | 29.16105 | 48.80517 | 37796 ft | 387 kts | 270° |
| 2026-05-06 00:28 | 29.16793 | 48.74020 | 37803 ft | 386 kts | 271° |
| 2026-05-06 00:29 | 29.17458 | 48.67703 | 37813 ft | 386 kts | 270° |
| 2026-05-06 00:29 | 29.18125 | 48.61332 | 37817 ft | 386 kts | 270° |
| 2026-05-06 00:30 | 29.18777 | 48.55089 | 37817 ft | 385 kts | 270° |
| 2026-05-06 00:30 | 29.19404 | 48.49057 | 37815 ft | 384 kts | 270° |
| 2026-05-06 00:31 | 29.20076 | 48.42566 | 37819 ft | 383 kts | 270° |
| 2026-05-06 00:31 | 29.20728 | 48.36233 | 37821 ft | 383 kts | 271° |
| 2026-05-06 00:32 | 29.21351 | 48.30146 | 37827 ft | 384 kts | 270° |
| 2026-05-06 00:32 | 29.21990 | 48.23881 | 37830 ft | 383 kts | 270° |
| 2026-05-06 00:33 | 29.22605 | 48.17826 | 37834 ft | 382 kts | 270° |
| 2026-05-06 00:33 | 29.23212 | 48.11830 | 37839 ft | 382 kts | 270° |
| 2026-05-06 00:34 | 29.23818 | 48.05811 | 37838 ft | 381 kts | 271° |
| 2026-05-06 00:34 | 29.24277 | 47.99818 | 37841 ft | 376 kts | 264° |
| 2026-05-06 00:35 | 29.23484 | 47.94209 | 37840 ft | 370 kts | 251° |
| 2026-05-06 00:35 | 29.21284 | 47.88911 | 37845 ft | 371 kts | 239° |
| 2026-05-06 00:36 | 29.18519 | 47.83952 | 37849 ft | 371 kts | 239° |
| 2026-05-06 00:36 | 29.15742 | 47.78965 | 37846 ft | 372 kts | 239° |
| 2026-05-06 00:37 | 29.12964 | 47.73978 | 37858 ft | 372 kts | 240° |
| 2026-05-06 00:37 | 29.10158 | 47.68940 | 37865 ft | 373 kts | 239° |
| 2026-05-06 00:38 | 29.07367 | 47.63930 | 37866 ft | 373 kts | 239° |
| 2026-05-06 00:38 | 29.04584 | 47.58939 | 37872 ft | 372 kts | 239° |
| 2026-05-06 00:39 | 29.01795 | 47.53942 | 37871 ft | 371 kts | 240° |
| 2026-05-06 00:39 | 28.98950 | 47.48807 | 37881 ft | 371 kts | 241° |
| 2026-05-06 00:40 | 28.96553 | 47.43602 | 37879 ft | 370 kts | 243° |
| 2026-05-06 00:40 | 28.94215 | 47.38446 | 37890 ft | 371 kts | 244° |
| 2026-05-06 00:41 | 28.91768 | 47.33067 | 37889 ft | 372 kts | 243° |
| 2026-05-06 00:41 | 28.89363 | 47.27790 | 37894 ft | 372 kts | 243° |
| 2026-05-06 00:42 | 28.86913 | 47.22425 | 37901 ft | 371 kts | 243° |
| 2026-05-06 00:42 | 28.84405 | 47.16940 | 37901 ft | 371 kts | 243° |
| 2026-05-06 00:43 | 28.81954 | 47.11589 | 37904 ft | 371 kts | 243° |
| 2026-05-06 00:43 | 28.79434 | 47.06094 | 37905 ft | 372 kts | 243° |
| 2026-05-06 00:44 | 28.76908 | 47.00596 | 37903 ft | 371 kts | 243° |
| 2026-05-06 00:44 | 28.74373 | 46.95088 | 37909 ft | 371 kts | 243° |
| 2026-05-06 00:45 | 28.72080 | 46.89383 | 37911 ft | 371 kts | 251° |
| 2026-05-06 00:45 | 28.71312 | 46.83252 | 37904 ft | 379 kts | 266° |
| 2026-05-06 00:46 | 28.71757 | 46.76985 | 37906 ft | 381 kts | 269° |
| 2026-05-06 00:46 | 28.72230 | 46.70887 | 37908 ft | 382 kts | 269° |
| 2026-05-06 00:47 | 28.72721 | 46.64572 | 37905 ft | 383 kts | 269° |
| 2026-05-06 00:47 | 28.73207 | 46.58303 | 37915 ft | 382 kts | 269° |
| 2026-05-06 00:48 | 28.73692 | 46.52021 | 37917 ft | 383 kts | 269° |
| 2026-05-06 00:48 | 28.74178 | 46.45718 | 37924 ft | 383 kts | 269° |
| 2026-05-06 00:49 | 28.74663 | 46.39388 | 37917 ft | 382 kts | 269° |
| 2026-05-06 00:49 | 28.75142 | 46.33104 | 37906 ft | 382 kts | 268° |
| 2026-05-06 00:50 | 28.75616 | 46.26649 | 37911 ft | 381 kts | 268° |
| 2026-05-06 00:50 | 28.76080 | 46.20275 | 37916 ft | 381 kts | 268° |
| 2026-05-06 00:51 | 28.76539 | 46.13935 | 37927 ft | 382 kts | 268° |
| 2026-05-06 00:51 | 28.76983 | 46.07762 | 37937 ft | 383 kts | 268° |
| 2026-05-06 00:52 | 28.77443 | 46.01328 | 37939 ft | 383 kts | 268° |
| 2026-05-06 00:52 | 28.77896 | 45.94967 | 37937 ft | 384 kts | 268° |
| 2026-05-06 00:53 | 28.78348 | 45.88565 | 37941 ft | 383 kts | 268° |
| 2026-05-06 00:53 | 28.78778 | 45.82445 | 37939 ft | 383 kts | 268° |
| 2026-05-06 00:54 | 28.79220 | 45.76099 | 37940 ft | 383 kts | 268° |
| 2026-05-06 00:54 | 28.79666 | 45.69655 | 37944 ft | 384 kts | 268° |
| 2026-05-06 00:55 | 28.80102 | 45.63379 | 37946 ft | 384 kts | 268° |
| 2026-05-06 00:55 | 28.80530 | 45.57183 | 37951 ft | 385 kts | 268° |
| 2026-05-06 00:56 | 28.80832 | 45.52797 | 37953 ft | 385 kts | 268° |
| 2026-05-06 00:56 | 28.81273 | 45.46340 | 37953 ft | 385 kts | 268° |
| 2026-05-06 00:56 | 28.81497 | 45.43051 | 37829 ft | 385 kts | 268° |
| 2026-05-06 00:57 | 28.81700 | 45.40072 | 37411 ft | 380 kts | 268° |
| 2026-05-06 00:57 | 28.81914 | 45.36939 | 36922 ft | 375 kts | 268° |
| 2026-05-06 00:57 | 28.82122 | 45.33851 | 36420 ft | 373 kts | 268° |
| 2026-05-06 00:57 | 28.82333 | 45.30713 | 35906 ft | 372 kts | 267° |
| 2026-05-06 00:58 | 28.82538 | 45.27632 | 35393 ft | 372 kts | 267° |
| 2026-05-06 00:58 | 28.82745 | 45.24518 | 34876 ft | 373 kts | 267° |
| 2026-05-06 00:58 | 28.82955 | 45.21327 | 34334 ft | 375 kts | 267° |
| 2026-05-06 00:58 | 28.83163 | 45.18166 | 33810 ft | 378 kts | 267° |
| 2026-05-06 00:59 | 28.83369 | 45.15022 | 33284 ft | 379 kts | 267° |
| 2026-05-06 00:59 | 28.83576 | 45.11858 | 32777 ft | 378 kts | 268° |
| 2026-05-06 00:59 | 28.83791 | 45.08586 | 32207 ft | 377 kts | 268° |
| 2026-05-06 00:59 | 28.84003 | 45.05337 | 31673 ft | 375 kts | 268° |
| 2026-05-06 01:00 | 28.84202 | 45.02277 | 31147 ft | 374 kts | 268° |
| 2026-05-06 01:00 | 28.84407 | 44.99106 | 30614 ft | 373 kts | 268° |
| 2026-05-06 01:00 | 28.84606 | 44.96005 | 30099 ft | 372 kts | 268° |
| 2026-05-06 01:00 | 28.84806 | 44.92901 | 29574 ft | 371 kts | 269° |
| 2026-05-06 01:01 | 28.85003 | 44.89811 | 29041 ft | 368 kts | 269° |
| 2026-05-06 01:01 | 28.85205 | 44.86644 | 28525 ft | 368 kts | 269° |
| 2026-05-06 01:01 | 28.85406 | 44.83475 | 27997 ft | 366 kts | 269° |
| 2026-05-06 01:01 | 28.85601 | 44.80392 | 27478 ft | 365 kts | 269° |
| 2026-05-06 01:02 | 28.85800 | 44.77343 | 26973 ft | 364 kts | 271° |
| 2026-05-06 01:02 | 28.86433 | 44.74302 | 26444 ft | 371 kts | 285° |
| 2026-05-06 01:02 | 28.87858 | 44.71473 | 25871 ft | 380 kts | 298° |
| 2026-05-06 01:02 | 28.89438 | 44.68926 | 25323 ft | 376 kts | 298° |
| 2026-05-06 01:03 | 28.91007 | 44.66388 | 24829 ft | 374 kts | 298° |
| 2026-05-06 01:03 | 28.92594 | 44.63818 | 24300 ft | 372 kts | 298° |
| 2026-05-06 01:03 | 28.94184 | 44.61240 | 23766 ft | 369 kts | 299° |
| 2026-05-06 01:03 | 28.95723 | 44.58745 | 23263 ft | 367 kts | 299° |
| 2026-05-06 01:04 | 28.97260 | 44.56251 | 22758 ft | 364 kts | 299° |
| 2026-05-06 01:04 | 28.98787 | 44.53771 | 22247 ft | 361 kts | 299° |
| 2026-05-06 01:04 | 29.00322 | 44.51279 | 21741 ft | 359 kts | 299° |
| 2026-05-06 01:04 | 29.01822 | 44.48839 | 21237 ft | 356 kts | 298° |
| 2026-05-06 01:05 | 29.03173 | 44.46643 | 20796 ft | 354 kts | 298° |
| 2026-05-06 01:05 | 29.04593 | 44.44332 | 20329 ft | 352 kts | 298° |
| 2026-05-06 01:05 | 29.05928 | 44.42158 | 19881 ft | 349 kts | 298° |
| 2026-05-06 01:05 | 29.07407 | 44.39747 | 19386 ft | 348 kts | 298° |
| 2026-05-06 01:06 | 29.08852 | 44.37391 | 18911 ft | 346 kts | 298° |
| 2026-05-06 01:06 | 29.10251 | 44.35110 | 18445 ft | 344 kts | 298° |
| 2026-05-06 01:06 | 29.11697 | 44.32751 | 17967 ft | 342 kts | 297° |
| 2026-05-06 01:06 | 29.13162 | 44.30358 | 17480 ft | 339 kts | 297° |
| 2026-05-06 01:07 | 29.16147 | 44.25481 | 16489 ft | 336 kts | 297° |
| 2026-05-06 01:07 | 29.17587 | 44.23124 | 16007 ft | 334 kts | 297° |
| 2026-05-06 01:07 | 29.19014 | 44.20788 | 15533 ft | 333 kts | 297° |
| 2026-05-06 01:08 | 29.20475 | 44.18397 | 15049 ft | 331 kts | 296° |
| 2026-05-06 01:08 | 29.21879 | 44.16096 | 14597 ft | 328 kts | 296° |
| 2026-05-06 01:08 | 29.23245 | 44.13869 | 14321 ft | 314 kts | 296° |
| 2026-05-06 01:08 | 29.24599 | 44.11650 | 13730 ft | 312 kts | 296° |
| 2026-05-06 01:09 | 29.25968 | 44.09408 | 13223 ft | 299 kts | 296° |
| 2026-05-06 01:09 | 29.27263 | 44.07292 | 12860 ft | 291 kts | 296° |
| 2026-05-06 01:09 | 29.28517 | 44.05232 | 12418 ft | 287 kts | 296° |
| 2026-05-06 01:09 | 29.29791 | 44.03139 | 11992 ft | 283 kts | 296° |
| 2026-05-06 01:10 | 29.31039 | 44.01088 | 11578 ft | 279 kts | 296° |
| 2026-05-06 01:10 | 29.32188 | 43.99198 | 11206 ft | 274 kts | 296° |
| 2026-05-06 01:10 | 29.33345 | 43.97293 | 10811 ft | 271 kts | 296° |
| 2026-05-06 01:10 | 29.34492 | 43.95406 | 10428 ft | 267 kts | 297° |
| 2026-05-06 01:11 | 29.35613 | 43.93559 | 10054 ft | 264 kts | 297° |
| 2026-05-06 01:11 | 29.36729 | 43.91721 | 9679 ft | 260 kts | 297° |
| 2026-05-06 01:11 | 29.37850 | 43.89871 | 9309 ft | 256 kts | 298° |
| 2026-05-06 01:11 | 29.38979 | 43.88009 | 8937 ft | 253 kts | 298° |
| 2026-05-06 01:12 | 29.40055 | 43.86233 | 8575 ft | 250 kts | 298° |
| 2026-05-06 01:12 | 29.41109 | 43.84492 | 8222 ft | 247 kts | 299° |
| 2026-05-06 01:12 | 29.42202 | 43.82686 | 7854 ft | 245 kts | 300° |
| 2026-05-06 01:12 | 29.43293 | 43.80924 | 7492 ft | 244 kts | 305° |
| 2026-05-06 01:13 | 29.44733 | 43.79637 | 7148 ft | 249 kts | 330° |
| 2026-05-06 01:13 | 29.46501 | 43.78809 | 6774 ft | 249 kts | 335° |
| 2026-05-06 01:13 | 29.48308 | 43.78000 | 6395 ft | 247 kts | 336° |
| 2026-05-06 01:13 | 29.50047 | 43.77220 | 6039 ft | 245 kts | 336° |
| 2026-05-06 01:14 | 29.52892 | 43.74770 | 5321 ft | 236 kts | 296° |
| 2026-05-06 01:14 | 29.53634 | 43.72871 | 4918 ft | 230 kts | 295° |
| 2026-05-06 01:14 | 29.54303 | 43.71097 | 4643 ft | 218 kts | 295° |
| 2026-05-06 01:15 | 29.54944 | 43.69400 | 4348 ft | 210 kts | 295° |
| 2026-05-06 01:15 | 29.55589 | 43.67694 | 4039 ft | 209 kts | 297° |
| 2026-05-06 01:15 | 29.56230 | 43.66000 | 3722 ft | 207 kts | 298° |
| 2026-05-06 01:15 | 29.56842 | 43.64352 | 3419 ft | 206 kts | 298° |
| 2026-05-06 01:16 | 29.57432 | 43.62765 | 3332 ft | 191 kts | 298° |
| 2026-05-06 01:16 | 29.58005 | 43.61246 | 3343 ft | 188 kts | 300° |
| 2026-05-06 01:16 | 29.58581 | 43.59739 | 3137 ft | 190 kts | 299° |
| 2026-05-06 01:16 | 29.59141 | 43.58252 | 2911 ft | 180 kts | 298° |
| 2026-05-06 01:17 | 29.59667 | 43.56856 | 2668 ft | 167 kts | 298° |
| 2026-05-06 01:17 | 29.60154 | 43.55571 | 2450 ft | 153 kts | 298° |
| 2026-05-06 01:17 | 29.60602 | 43.54397 | 2233 ft | 143 kts | 296° |
| 2026-05-06 01:17 | 29.61025 | 43.53289 | 2028 ft | 140 kts | 296° |
| 2026-05-06 01:18 | 29.61441 | 43.52198 | 1836 ft | 131 kts | 295° |
| 2026-05-06 01:18 | 29.61843 | 43.51142 | 1646 ft | 129 kts | 295° |
| 2026-05-06 01:18 | 29.62229 | 43.50136 | 1497 ft | 117 kts | 295° |
| 2026-05-06 01:18 | 29.62525 | 43.49351 | 1471 ft | 86 kts | 292° |
| 2026-05-06 01:19 | 29.62622 | 43.49034 | 1464 ft | 7 kts | 185° |
| 2026-05-06 01:19 | 29.62555 | 43.49047 | 1464 ft | 10 kts | 186° |
| 2026-05-06 01:19 | 29.62477 | 43.48978 | 1463 ft | 16 kts | 223° |
| 2026-05-06 01:19 | 29.62452 | 43.48954 | 1463 ft | 0 kts | 213° |